KRID/RID METAR and TAF weather

Enter ICAO airport designator
Station Type Date Time Source
KRID METAR 2022/01/29 13:15 UTC NOAA

KRID 291315Z AUTO 28003KT 7SM M19/M20 A3025 RMK AO2


Station Type Date Time Source
KRID Decoded METAR 2022/01/29 13:15 UTC NOAA

Station name not available
Jan 29, 2022 - 08:15 AM EST / 2022.01.29 1315 UTC
Wind: from the W (280 degrees) at 3 MPH (3 KT):0
Visibility: 7 mile(s):0
Temperature: -2 F (-19 C)
Dew Point: -4 F (-20 C)
Relative Humidity: 91%
Pressure (altimeter): 30.25 in. Hg (1024 hPa)
ob: KRID 291315Z AUTO 28003KT 7SM M19/M20 A3025 RMK AO2
cycle: 13

Station Type Date Time Source
KRID TAF UTC NOAA

Error!

Example: see airport list